createdAt,value
2019-05-17T00:01:42.563Z,5.30
2019-05-17T00:04:19.507Z,5.30
2019-05-17T00:06:56.939Z,5.30
2019-05-17T00:09:30.022Z,5.30
2019-05-17T00:12:03.784Z,5.30
2019-05-17T00:14:36.758Z,5.20
2019-05-17T00:17:08.477Z,5.20
2019-05-17T00:19:41.959Z,5.20
2019-05-17T00:22:18.474Z,5.20
2019-05-17T00:24:52.843Z,5.10
2019-05-17T00:27:31.111Z,5.20
2019-05-17T00:30:03.748Z,5.10
2019-05-17T00:32:37.072Z,5.10
2019-05-17T00:35:11.656Z,5.10
2019-05-17T00:37:47.431Z,5.00
2019-05-17T00:40:26.970Z,5.00
2019-05-17T00:43:03.203Z,5.00
2019-05-17T00:45:37.729Z,4.90
2019-05-17T00:48:11.797Z,4.90
2019-05-17T00:50:52.468Z,4.80
2019-05-17T00:53:21.833Z,4.80
2019-05-17T00:55:57.322Z,4.80
2019-05-17T00:58:32.305Z,4.80
2019-05-17T01:01:08.218Z,4.70
2019-05-17T01:03:41.635Z,4.70
2019-05-17T01:06:16.786Z,4.60
2019-05-17T01:09:00.993Z,4.60
2019-05-17T01:11:29.114Z,4.50
2019-05-17T01:14:01.903Z,4.50
2019-05-17T01:16:40.261Z,4.50
2019-05-17T01:19:20.285Z,4.50
2019-05-17T01:21:52.788Z,4.50
2019-05-17T01:24:29.253Z,4.50
2019-05-17T01:27:03.452Z,4.50
2019-05-17T01:29:36.975Z,4.40
2019-05-17T01:32:10.548Z,4.40
2019-05-17T01:34:46.890Z,4.40
2019-05-17T01:37:20.457Z,4.40
2019-05-17T01:39:54.160Z,4.40
2019-05-17T01:42:27.309Z,4.30
2019-05-17T01:45:01.895Z,4.30
2019-05-17T01:47:36.811Z,4.30
2019-05-17T01:50:17.460Z,4.20
2019-05-17T01:52:51.721Z,4.20
2019-05-17T01:55:26.591Z,4.20
2019-05-17T01:58:00.320Z,4.10
2019-05-17T02:00:33.797Z,4.10
2019-05-17T02:03:07.676Z,4.10
2019-05-17T02:05:44.498Z,4.00
2019-05-17T02:08:21.975Z,3.90
2019-05-17T02:10:57.437Z,3.90
2019-05-17T02:13:33.723Z,3.90
2019-05-17T02:16:07.193Z,3.90
2019-05-17T02:18:40.574Z,3.90
2019-05-17T02:21:13.527Z,3.90
2019-05-17T02:23:46.981Z,3.80
2019-05-17T02:26:19.972Z,3.70
2019-05-17T02:28:53.711Z,3.70
2019-05-17T02:31:27.215Z,3.70
2019-05-17T02:34:02.795Z,3.70
2019-05-17T02:36:35.195Z,3.70
2019-05-17T02:39:13.128Z,3.70
2019-05-17T02:41:44.394Z,3.70
2019-05-17T02:44:15.832Z,3.70
2019-05-17T02:46:47.227Z,3.70
2019-05-17T02:49:18.159Z,3.70
2019-05-17T02:51:52.554Z,3.70
2019-05-17T02:54:23.595Z,3.70
2019-05-17T02:56:55.660Z,3.70
2019-05-17T02:59:43.332Z,3.60
2019-05-17T03:02:13.531Z,3.60
2019-05-17T03:04:44.898Z,3.70
2019-05-17T03:07:15.937Z,3.60
2019-05-17T03:09:47.194Z,3.70
2019-05-17T03:12:18.628Z,3.60
2019-05-17T03:14:52.646Z,3.60
2019-05-17T03:17:23.108Z,3.50
2019-05-17T03:19:53.917Z,3.40
2019-05-17T03:22:25.273Z,3.50
2019-05-17T03:24:56.857Z,3.60
2019-05-17T03:27:28.149Z,3.50
2019-05-17T03:30:07.583Z,3.40
2019-05-17T03:32:39.555Z,3.30
2019-05-17T03:35:16.539Z,3.20
2019-05-17T03:37:43.922Z,3.00
2019-05-17T03:40:35.074Z,3.00
2019-05-17T03:42:48.986Z,2.90
2019-05-17T03:45:22.863Z,2.80
2019-05-17T03:47:53.479Z,2.70
2019-05-17T03:50:25.570Z,2.70
2019-05-17T03:52:57.187Z,2.70
2019-05-17T03:55:28.251Z,2.80
2019-05-17T03:58:02.881Z,2.70
2019-05-17T04:00:35.423Z,2.80
2019-05-17T04:03:05.474Z,2.80
2019-05-17T04:05:43.026Z,2.90
2019-05-17T04:10:48.058Z,3.10
2019-05-17T04:13:22.727Z,3.10
2019-05-17T04:15:53.613Z,3.20
2019-05-17T04:18:26.192Z,3.30
2019-05-17T04:20:58.408Z,3.30
2019-05-17T04:23:33.910Z,3.30
2019-05-17T04:26:04.269Z,3.30
2019-05-17T04:28:35.999Z,3.30
2019-05-17T04:31:07.908Z,3.30
2019-05-17T04:33:42.613Z,3.40
2019-05-17T04:36:24.430Z,3.50
2019-05-17T04:38:56.028Z,3.70
2019-05-17T04:41:41.522Z,3.80
2019-05-17T04:44:06.034Z,4.00
2019-05-17T04:46:39.157Z,4.30
2019-05-17T04:49:24.235Z,4.50
2019-05-17T04:51:55.333Z,4.80
2019-05-17T04:54:26.960Z,5.10
2019-05-17T04:56:58.344Z,5.30
2019-05-17T04:59:33.900Z,5.60
2019-05-17T05:02:03.466Z,5.80
2019-05-17T05:04:38.506Z,6.00
2019-05-17T05:07:08.337Z,6.20
2019-05-17T05:09:42.991Z,6.40
2019-05-17T05:12:13.718Z,6.60
2019-05-17T05:14:45.338Z,7.00
2019-05-17T05:17:16.788Z,7.40
2019-05-17T05:19:48.459Z,8.10
2019-05-17T05:22:22.350Z,9.00
2019-05-17T05:24:54.589Z,10.70
2019-05-17T05:27:25.777Z,11.50
2019-05-17T05:29:56.737Z,11.90
2019-05-17T05:32:28.387Z,12.60
2019-05-17T05:34:59.013Z,14.50
2019-05-17T05:37:32.981Z,15.50
2019-05-17T05:40:03.037Z,16.10
2019-05-17T05:42:34.687Z,16.70
2019-05-17T05:45:05.413Z,16.90
2019-05-17T05:47:36.996Z,16.60
2019-05-17T05:50:08.336Z,16.80
2019-05-17T05:52:42.402Z,17.10
2019-05-17T05:55:13.705Z,17.00
2019-05-17T05:57:44.595Z,17.30
2019-05-17T06:00:16.708Z,16.70
2019-05-17T06:02:48.179Z,16.30
2019-05-17T06:05:21.789Z,16.30
2019-05-17T06:07:52.829Z,15.80
2019-05-17T06:10:23.549Z,16.50
2019-05-17T06:12:54.609Z,17.10
2019-05-17T06:15:25.198Z,18.00
2019-05-17T06:17:56.066Z,17.00
2019-05-17T06:20:27.881Z,17.40
2019-05-17T06:22:59.174Z,17.10
2019-05-17T06:25:33.776Z,17.30
2019-05-17T06:28:03.348Z,17.50
2019-05-17T06:30:34.705Z,18.10
2019-05-17T06:33:05.678Z,18.00
2019-05-17T06:35:39.235Z,18.60
2019-05-17T06:38:12.096Z,17.90
2019-05-17T06:40:43.021Z,16.70
2019-05-17T06:43:14.337Z,15.70
2019-05-17T06:45:52.034Z,15.20
2019-05-17T06:48:22.732Z,15.10
2019-05-17T06:50:53.687Z,16.50
2019-05-17T06:53:25.601Z,18.00
2019-05-17T06:55:56.602Z,18.80
2019-05-17T06:58:28.467Z,19.90
2019-05-17T07:01:00.009Z,19.90
2019-05-17T07:03:31.107Z,18.40
2019-05-17T07:06:03.752Z,18.60
2019-05-17T07:08:35.330Z,19.20
2019-05-17T07:11:06.953Z,19.30
2019-05-17T07:13:39.557Z,18.50
2019-05-17T07:16:11.170Z,18.20
2019-05-17T07:18:49.373Z,18.40
2019-05-17T07:21:20.840Z,19.20
2019-05-17T07:23:52.441Z,19.90
2019-05-17T07:26:23.348Z,19.80
2019-05-17T07:28:54.926Z,20.50
2019-05-17T07:31:26.913Z,21.40
2019-05-17T07:33:59.825Z,20.20
2019-05-17T07:36:31.638Z,18.90
2019-05-17T07:39:03.891Z,18.70
2019-05-17T07:41:35.605Z,18.90
2019-05-17T07:44:09.772Z,19.80
2019-05-17T07:46:40.402Z,19.40
2019-05-17T07:49:11.398Z,18.30
2019-05-17T07:51:43.062Z,18.00
2019-05-17T07:54:13.986Z,17.40
2019-05-17T07:56:45.536Z,15.50
2019-05-17T07:59:16.902Z,16.00
2019-05-17T08:01:50.319Z,16.50
2019-05-17T08:04:21.334Z,17.00
2019-05-17T08:06:52.676Z,16.70
2019-05-17T08:09:24.141Z,17.80
2019-05-17T08:11:55.399Z,18.30
2019-05-17T08:14:30.218Z,19.50
2019-05-17T08:16:59.945Z,20.00
2019-05-17T08:19:30.954Z,20.40
2019-05-17T08:22:02.546Z,20.10
2019-05-17T08:24:34.137Z,18.90
2019-05-17T08:27:05.312Z,19.30
2019-05-17T08:29:37.347Z,19.60
2019-05-17T08:32:09.585Z,20.50
2019-05-17T08:34:41.679Z,20.20
2019-05-17T08:37:13.412Z,20.10
2019-05-17T08:39:44.685Z,21.20
2019-05-17T08:42:15.948Z,21.60
2019-05-17T08:44:49.672Z,21.40
2019-05-17T08:47:20.857Z,21.20
2019-05-17T08:49:52.823Z,21.80
2019-05-17T08:52:24.925Z,21.30
2019-05-17T08:54:55.858Z,22.60
2019-05-17T08:57:26.650Z,20.80
2019-05-17T09:00:00.510Z,20.80
2019-05-17T09:02:30.487Z,21.30
2019-05-17T09:05:01.157Z,20.50
2019-05-17T09:07:33.123Z,20.90
2019-05-17T09:10:06.006Z,20.30
2019-05-17T09:12:37.315Z,21.10
2019-05-17T09:15:10.060Z,20.50
2019-05-17T09:17:41.282Z,20.10
2019-05-17T09:20:12.624Z,20.20
2019-05-17T09:22:44.082Z,21.00
2019-05-17T09:25:19.048Z,21.00
2019-05-17T09:28:00.757Z,20.90
2019-05-17T09:30:31.944Z,20.70
2019-05-17T09:33:03.563Z,20.80
2019-05-17T09:35:35.355Z,21.60
2019-05-17T09:38:06.983Z,21.70
2019-05-17T09:40:40.263Z,21.60
2019-05-17T09:43:10.924Z,22.90
2019-05-17T09:45:42.712Z,23.60
2019-05-17T09:48:13.743Z,24.00
2019-05-17T09:50:46.292Z,23.00
2019-05-17T09:53:19.960Z,23.20
2019-05-17T09:55:51.109Z,23.00
2019-05-17T09:58:22.121Z,23.40
2019-05-17T10:00:53.569Z,22.50
2019-05-17T10:03:24.864Z,22.60
2019-05-17T10:05:55.944Z,23.40
2019-05-17T10:08:26.943Z,23.70
2019-05-17T10:11:06.047Z,24.00
2019-05-17T10:13:31.577Z,23.60
2019-05-17T10:16:10.212Z,24.10
2019-05-17T10:18:41.905Z,25.00
2019-05-17T10:21:12.231Z,25.20
2019-05-17T10:23:43.859Z,25.60
2019-05-17T10:26:15.637Z,26.90
2019-05-17T10:28:46.564Z,28.00
2019-05-17T10:31:19.615Z,27.40
2019-05-17T10:33:51.206Z,26.70
2019-05-17T10:36:22.261Z,25.70
2019-05-17T10:38:53.569Z,26.50
2019-05-17T10:41:24.229Z,26.40
2019-05-17T10:43:56.288Z,26.40
2019-05-17T10:46:29.828Z,24.20
2019-05-17T10:49:01.044Z,23.70
2019-05-17T10:51:32.633Z,22.50
2019-05-17T10:54:04.515Z,22.00
2019-05-17T10:56:36.246Z,22.10
2019-05-17T10:59:09.851Z,23.20
2019-05-17T11:01:40.697Z,23.60
2019-05-17T11:04:11.338Z,25.50
2019-05-17T11:06:42.625Z,26.80
2019-05-17T11:09:14.552Z,27.10
2019-05-17T11:11:46.260Z,26.20
2019-05-17T11:14:17.261Z,24.90
2019-05-17T11:16:48.584Z,26.30
2019-05-17T11:19:20.181Z,26.40
2019-05-17T11:21:51.856Z,24.40
2019-05-17T11:24:23.199Z,23.90
2019-05-17T11:26:54.435Z,23.00
2019-05-17T11:29:25.355Z,22.80
2019-05-17T11:31:57.056Z,23.60
2019-05-17T11:34:29.099Z,23.90
2019-05-17T11:37:00.585Z,24.50
2019-05-17T11:39:32.463Z,25.00
2019-05-17T11:42:04.516Z,26.70
2019-05-17T11:44:36.507Z,27.20
2019-05-17T11:47:07.460Z,26.20
2019-05-17T11:49:38.991Z,26.90
2019-05-17T11:52:10.675Z,28.30
2019-05-17T11:54:45.387Z,29.50
2019-05-17T11:57:16.660Z,28.20
2019-05-17T11:59:48.286Z,28.20
2019-05-17T12:02:21.603Z,29.00
2019-05-17T12:04:53.246Z,28.80
2019-05-17T12:07:24.580Z,28.60
2019-05-17T12:09:55.967Z,28.40
2019-05-17T12:12:42.485Z,28.30
2019-05-17T12:15:14.111Z,27.40
2019-05-17T12:17:54.028Z,28.00
2019-05-17T12:20:25.219Z,28.20
2019-05-17T12:22:56.981Z,26.70
2019-05-17T12:25:28.247Z,26.70
2019-05-17T12:27:59.568Z,26.20
2019-05-17T12:30:30.565Z,27.00
2019-05-17T12:33:02.332Z,26.90
2019-05-17T12:35:33.079Z,26.80
2019-05-17T12:38:04.956Z,26.20
2019-05-17T12:40:36.720Z,26.10
2019-05-17T12:43:07.802Z,26.10
2019-05-17T12:45:38.493Z,26.40
2019-05-17T12:48:15.352Z,25.90
2019-05-17T12:50:46.907Z,26.30
2019-05-17T12:53:18.079Z,28.50
2019-05-17T12:55:49.322Z,28.70
2019-05-17T12:58:20.746Z,27.40
2019-05-17T13:00:52.492Z,27.30
2019-05-17T13:03:23.153Z,26.80
2019-05-17T13:05:54.018Z,25.70
2019-05-17T13:08:25.400Z,24.80
2019-05-17T13:10:56.569Z,24.80
2019-05-17T13:13:27.804Z,26.20
2019-05-17T13:16:17.312Z,27.30
2019-05-17T13:18:39.870Z,28.90
2019-05-17T13:21:10.568Z,30.00
2019-05-17T13:23:41.719Z,29.80
2019-05-17T13:26:13.282Z,30.20
2019-05-17T13:28:45.241Z,29.60
2019-05-17T13:31:16.708Z,30.10
2019-05-17T13:33:50.043Z,30.20
2019-05-17T13:36:22.131Z,31.40
2019-05-17T13:38:53.380Z,32.10
2019-05-17T13:41:24.616Z,31.90
2019-05-17T13:43:55.647Z,32.30
2019-05-17T13:46:33.325Z,32.50
2019-05-17T13:49:24.119Z,30.30
2019-05-17T13:52:04.942Z,31.40
2019-05-17T13:54:36.891Z,32.30
2019-05-17T13:57:11.162Z,32.70
2019-05-17T13:59:41.585Z,33.10
2019-05-17T14:02:13.215Z,30.10
2019-05-17T14:04:45.354Z,30.60
2019-05-17T14:07:19.612Z,30.80
2019-05-17T14:09:51.344Z,32.10
2019-05-17T14:12:22.923Z,32.70
2019-05-17T14:14:54.777Z,31.60
2019-05-17T14:17:26.353Z,31.00
2019-05-17T14:19:57.521Z,31.20
2019-05-17T14:22:28.902Z,31.40
2019-05-17T14:25:01.338Z,30.80
2019-05-17T14:27:32.587Z,32.40
2019-05-17T14:30:03.891Z,33.20
2019-05-17T14:32:36.239Z,33.40
2019-05-17T14:35:07.547Z,31.50
2019-05-17T14:37:39.873Z,32.20
2019-05-17T14:40:11.300Z,32.20
2019-05-17T14:42:43.122Z,31.70
2019-05-17T14:45:14.528Z,32.10
2019-05-17T14:47:45.965Z,31.40
2019-05-17T14:50:17.728Z,32.30
2019-05-17T14:52:51.321Z,32.00
2019-05-17T14:55:23.427Z,31.30
2019-05-17T14:57:54.712Z,30.90
2019-05-17T15:00:25.958Z,30.00
2019-05-17T15:02:57.882Z,29.70
2019-05-17T15:05:29.263Z,30.40
2019-05-17T15:08:00.603Z,30.70
2019-05-17T15:10:32.049Z,30.60
2019-05-17T15:13:02.811Z,30.20
2019-05-17T15:15:34.779Z,29.50
2019-05-17T15:18:09.271Z,29.50
2019-05-17T15:20:39.193Z,28.60
2019-05-17T15:23:15.148Z,28.70
2019-05-17T15:25:47.391Z,29.60
2019-05-17T15:28:19.570Z,30.30
2019-05-17T15:30:51.092Z,30.50
2019-05-17T15:33:24.469Z,30.40
2019-05-17T15:35:56.222Z,31.00
2019-05-17T15:38:27.324Z,31.00
2019-05-17T15:41:09.907Z,31.40
2019-05-17T15:43:42.907Z,30.70
2019-05-17T15:46:14.486Z,30.30
2019-05-17T15:48:45.466Z,30.10
2019-05-17T15:51:17.023Z,29.80
2019-05-17T15:53:48.462Z,29.80
2019-05-17T15:56:48.093Z,30.30
2019-05-17T15:59:20.034Z,30.10
2019-05-17T16:01:51.786Z,30.80
2019-05-17T16:04:23.291Z,30.50
2019-05-17T16:06:54.687Z,31.60
2019-05-17T16:09:26.182Z,31.90
2019-05-17T16:11:58.004Z,31.00
2019-05-17T16:14:29.649Z,29.90
2019-05-17T16:17:00.702Z,28.30
2019-05-17T16:19:32.058Z,27.00
2019-05-17T16:22:03.394Z,27.20
2019-05-17T16:24:35.517Z,26.90
2019-05-17T16:27:16.433Z,27.80
2019-05-17T16:29:47.668Z,28.30
2019-05-17T16:32:19.729Z,27.80
2019-05-17T16:34:51.055Z,27.20
2019-05-17T16:37:22.846Z,26.30
2019-05-17T16:39:54.528Z,25.90
2019-05-17T16:42:46.361Z,25.60
2019-05-17T16:45:19.850Z,25.30
2019-05-17T16:47:51.698Z,25.80
2019-05-17T16:50:22.621Z,26.50
2019-05-17T16:53:05.611Z,26.90
2019-05-17T16:55:59.470Z,26.70
2019-05-17T16:58:30.897Z,26.80
2019-05-17T17:01:03.556Z,26.50
2019-05-17T17:03:43.688Z,26.30
2019-05-17T17:06:10.319Z,25.70
2019-05-17T17:08:41.025Z,24.70
2019-05-17T17:11:11.926Z,24.00
2019-05-17T17:13:43.467Z,23.40
2019-05-17T17:16:14.793Z,23.20
2019-05-17T17:18:54.150Z,22.70
2019-05-17T17:21:25.605Z,22.50
2019-05-17T17:23:57.260Z,22.00
2019-05-17T17:26:29.247Z,21.70
2019-05-17T17:28:59.993Z,21.40
2019-05-17T17:31:31.612Z,21.30
2019-05-17T17:34:03.274Z,21.20
2019-05-17T17:36:34.287Z,21.10
2019-05-17T17:39:06.792Z,21.10
2019-05-17T17:41:37.504Z,20.70
2019-05-17T17:44:08.919Z,20.40
2019-05-17T17:46:39.560Z,20.10
2019-05-17T17:49:11.500Z,19.80
2019-05-17T17:51:42.539Z,19.70
2019-05-17T17:54:32.905Z,19.70
2019-05-17T17:57:04.910Z,19.70
2019-05-17T17:59:35.983Z,19.60
2019-05-17T18:02:07.410Z,19.60
2019-05-17T18:04:39.226Z,19.50
2019-05-17T18:07:10.564Z,19.30
2019-05-17T18:09:41.497Z,19.20
2019-05-17T18:12:12.833Z,19.10
2019-05-17T18:14:44.192Z,19.10
2019-05-17T18:17:15.892Z,18.90
2019-05-17T18:19:56.385Z,18.90
2019-05-17T18:22:27.100Z,18.70
2019-05-17T18:24:58.720Z,18.50
2019-05-17T18:27:30.657Z,18.30
2019-05-17T18:30:01.685Z,18.10
2019-05-17T18:32:32.980Z,17.90
2019-05-17T18:35:03.691Z,17.70
2019-05-17T18:37:52.254Z,17.60
2019-05-17T18:40:24.197Z,17.50
2019-05-17T18:42:55.173Z,17.40
2019-05-17T18:45:27.051Z,17.30
2019-05-17T18:48:03.056Z,17.20
2019-05-17T18:50:34.789Z,17.10
2019-05-17T18:53:13.094Z,17.00
2019-05-17T18:55:47.910Z,16.90
2019-05-17T18:58:26.940Z,16.80
2019-05-17T19:00:59.074Z,16.70
2019-05-17T19:03:32.396Z,16.60
2019-05-17T19:06:04.845Z,16.50
2019-05-17T19:08:36.778Z,16.50
2019-05-17T19:11:08.375Z,16.40
2019-05-17T19:13:40.782Z,16.30
2019-05-17T19:16:12.121Z,16.20
2019-05-17T19:18:43.681Z,16.10
2019-05-17T19:21:15.005Z,16.10
2019-05-17T19:23:46.533Z,16.00
2019-05-17T19:26:17.855Z,15.90
2019-05-17T19:28:49.600Z,15.80
2019-05-17T19:31:22.264Z,15.80
2019-05-17T19:33:53.971Z,15.80
2019-05-17T19:36:25.310Z,15.80
2019-05-17T19:39:17.092Z,15.80
2019-05-17T19:41:48.461Z,15.80
2019-05-17T19:44:20.735Z,15.90
2019-05-17T19:46:52.082Z,15.90
2019-05-17T19:49:29.538Z,15.90
2019-05-17T19:52:16.881Z,15.80
2019-05-17T19:54:52.035Z,15.80
2019-05-17T19:57:24.027Z,15.60
2019-05-17T19:59:55.220Z,15.40
2019-05-17T20:02:30.425Z,15.20
2019-05-17T20:05:03.690Z,15.00
2019-05-17T20:07:38.853Z,14.90
2019-05-17T20:10:17.339Z,14.70
2019-05-17T20:12:48.974Z,14.60
2019-05-17T20:15:33.659Z,14.50
2019-05-17T20:18:00.093Z,14.40
2019-05-17T20:20:38.693Z,14.30
2019-05-17T20:23:17.531Z,14.20
2019-05-17T20:25:55.531Z,14.10
2019-05-17T20:28:36.730Z,14.10
2019-05-17T20:31:12.180Z,14.10
2019-05-17T20:33:55.427Z,14.10
2019-05-17T20:36:38.500Z,14.10
2019-05-17T20:39:18.871Z,14.00
2019-05-17T20:41:57.182Z,13.90
2019-05-17T20:44:27.300Z,13.90
2019-05-17T20:47:02.936Z,13.90
2019-05-17T20:49:33.769Z,13.90
2019-05-17T20:52:06.085Z,13.90
2019-05-17T20:54:37.852Z,13.80
2019-05-17T20:57:09.571Z,13.80
2019-05-17T20:59:51.912Z,13.80
2019-05-17T21:02:24.506Z,13.70
2019-05-17T21:04:59.960Z,13.70
2019-05-17T21:07:32.392Z,13.70
2019-05-17T21:10:06.054Z,13.70
2019-05-17T21:12:40.948Z,13.70
2019-05-17T21:15:13.187Z,13.70
2019-05-17T21:17:47.009Z,13.60
2019-05-17T21:20:42.245Z,13.60
2019-05-17T21:23:17.154Z,13.60
2019-05-17T21:25:48.217Z,13.50
2019-05-17T21:28:19.526Z,13.40
2019-05-17T21:30:50.733Z,13.40
2019-05-17T21:33:22.497Z,13.30
2019-05-17T21:35:54.276Z,13.30
2019-05-17T21:38:31.164Z,13.30
2019-05-17T21:41:02.593Z,13.20
2019-05-17T21:43:34.657Z,13.20
2019-05-17T21:46:09.871Z,13.20
2019-05-17T21:48:43.502Z,13.20
2019-05-17T21:51:17.185Z,13.10
2019-05-17T21:53:48.722Z,13.20
2019-05-17T21:56:24.746Z,13.20
2019-05-17T21:58:56.499Z,13.10
2019-05-17T22:01:36.378Z,13.10
2019-05-17T22:04:08.243Z,13.00
2019-05-17T22:06:49.175Z,12.90
2019-05-17T22:09:29.271Z,12.90
2019-05-17T22:12:10.111Z,12.80
2019-05-17T22:14:44.140Z,12.80
2019-05-17T22:17:24.062Z,12.70
2019-05-17T22:20:01.920Z,12.70
2019-05-17T22:22:42.352Z,12.70
2019-05-17T22:25:21.949Z,12.70
2019-05-17T22:27:59.631Z,12.60
2019-05-17T22:30:35.808Z,12.60
2019-05-17T22:33:14.776Z,12.60
2019-05-17T22:35:46.382Z,12.60
2019-05-17T22:38:17.498Z,12.60
2019-05-17T22:40:49.146Z,12.60
2019-05-17T22:43:20.233Z,12.50
2019-05-17T22:45:51.182Z,12.40
2019-05-17T22:48:23.021Z,12.30
2019-05-17T22:50:54.372Z,12.30
2019-05-17T22:53:25.437Z,12.30
2019-05-17T22:55:56.776Z,12.20
2019-05-17T22:58:28.454Z,12.20
2019-05-17T23:01:00.045Z,12.20
2019-05-17T23:03:31.928Z,12.30
2019-05-17T23:06:02.847Z,12.20
2019-05-17T23:08:34.316Z,12.20
2019-05-17T23:11:38.939Z,12.20
2019-05-17T23:14:10.674Z,12.20
2019-05-17T23:16:50.929Z,12.20
2019-05-17T23:19:15.144Z,12.20
2019-05-17T23:21:46.182Z,12.20
2019-05-17T23:24:17.622Z,12.20
2019-05-17T23:26:48.672Z,12.20
2019-05-17T23:29:20.586Z,12.20
2019-05-17T23:31:52.180Z,12.20
2019-05-17T23:34:23.844Z,12.10
2019-05-17T23:36:55.332Z,12.10
2019-05-17T23:39:47.969Z,12.10
2019-05-17T23:42:19.509Z,12.10
2019-05-17T23:44:50.969Z,12.10
2019-05-17T23:47:22.349Z,12.10
2019-05-17T23:49:53.074Z,12.10
2019-05-17T23:52:24.381Z,12.10
2019-05-17T23:54:55.353Z,12.20
2019-05-17T23:57:25.963Z,12.20
2019-05-17T23:59:57.726Z,12.10
